createdAt,value
2019-05-26T00:01:36.073Z,-68
2019-05-26T00:04:08.316Z,-68
2019-05-26T00:06:39.874Z,-68
2019-05-26T00:09:11.805Z,-68
2019-05-26T00:11:43.400Z,-68
2019-05-26T00:14:15.301Z,-68
2019-05-26T00:16:47.293Z,-68
2019-05-26T00:19:19.009Z,-67
2019-05-26T00:22:23.309Z,-68
2019-05-26T00:24:55.310Z,-68
2019-05-26T00:27:28.301Z,-69
2019-05-26T00:30:00.058Z,-69
2019-05-26T00:32:31.718Z,-68
2019-05-26T00:35:02.520Z,-68
2019-05-26T00:37:48.334Z,-68
2019-05-26T00:40:08.374Z,-68
2019-05-26T00:42:40.015Z,-68
2019-05-26T00:45:12.306Z,-68
2019-05-26T00:47:43.831Z,-68
2019-05-26T00:50:15.760Z,-69
2019-05-26T00:52:47.370Z,-68
2019-05-26T00:55:19.067Z,-69
2019-05-26T00:57:50.757Z,-68
2019-05-26T01:00:40.755Z,-69
2019-05-26T01:03:11.773Z,-68
2019-05-26T01:05:43.483Z,-68
2019-05-26T01:08:15.302Z,-68
2019-05-26T01:10:46.828Z,-69
2019-05-26T01:13:18.631Z,-68
2019-05-26T01:15:50.390Z,-68
2019-05-26T01:18:22.315Z,-70
2019-05-26T01:20:53.874Z,-70
2019-05-26T01:23:25.511Z,-71
2019-05-26T01:25:57.313Z,-69
2019-05-26T01:28:28.889Z,-68
2019-05-26T01:31:00.743Z,-69
2019-05-26T01:33:31.450Z,-69
2019-05-26T01:36:03.299Z,-68
2019-05-26T01:38:35.427Z,-69
2019-05-26T01:41:07.070Z,-68
2019-05-26T01:43:38.781Z,-69
2019-05-26T01:46:09.633Z,-68
2019-05-26T01:48:41.391Z,-68
2019-05-26T01:51:13.049Z,-68
2019-05-26T01:53:44.770Z,-68
2019-05-26T01:56:15.459Z,-69
2019-05-26T01:58:47.297Z,-68
2019-05-26T02:01:18.854Z,-68
2019-05-26T02:03:50.436Z,-68
2019-05-26T02:06:22.558Z,-68
2019-05-26T02:08:54.305Z,-68
2019-05-26T02:11:26.301Z,-68
2019-05-26T02:13:57.711Z,-68
2019-05-26T02:16:28.480Z,-68
2019-05-26T02:19:00.304Z,-68
2019-05-26T02:21:31.864Z,-68
2019-05-26T02:24:03.733Z,-69
2019-05-26T02:26:34.863Z,-68
2019-05-26T02:29:06.387Z,-68
2019-05-26T02:31:38.401Z,-68
2019-05-26T02:34:10.292Z,-68
2019-05-26T02:36:41.840Z,-68
2019-05-26T02:39:13.467Z,-68
2019-05-26T02:41:45.611Z,-69
2019-05-26T02:44:17.369Z,-68
2019-05-26T02:46:49.018Z,-69
2019-05-26T02:49:20.744Z,-68
2019-05-26T02:51:51.446Z,-68
2019-05-26T02:54:23.308Z,-68
2019-05-26T02:56:54.819Z,-69
2019-05-26T02:59:26.820Z,-69
2019-05-26T03:02:03.633Z,-69
2019-05-26T03:04:32.308Z,-69
2019-05-26T03:07:03.955Z,-69
2019-05-26T03:09:36.343Z,-68
2019-05-26T03:12:08.297Z,-68
2019-05-26T03:14:39.863Z,-69
2019-05-26T03:17:11.752Z,-68
2019-05-26T03:19:42.620Z,-68
2019-05-26T03:22:14.372Z,-68
2019-05-26T03:24:46.070Z,-68
2019-05-26T03:27:17.774Z,-68
2019-05-26T03:29:48.459Z,-68
2019-05-26T03:32:20.376Z,-69
2019-05-26T03:34:52.067Z,-69
2019-05-26T03:37:23.842Z,-69
2019-05-26T03:39:55.395Z,-68
2019-05-26T03:42:27.023Z,-68
2019-05-26T03:44:58.775Z,-70
2019-05-26T03:47:29.481Z,-71
2019-05-26T03:50:01.497Z,-71
2019-05-26T03:52:33.301Z,-71
2019-05-26T03:55:05.299Z,-70
2019-05-26T03:57:37.265Z,-70
2019-05-26T04:00:08.946Z,-71
2019-05-26T04:02:40.774Z,-71
2019-05-26T04:05:11.468Z,-70
2019-05-26T04:07:43.304Z,-71
2019-05-26T04:10:15.752Z,-71
2019-05-26T04:12:46.481Z,-68
2019-05-26T04:15:18.696Z,-69
2019-05-26T04:17:49.454Z,-69
2019-05-26T04:20:21.024Z,-68
2019-05-26T04:22:52.786Z,-69
2019-05-26T04:25:24.354Z,-69
2019-05-26T04:27:56.023Z,-68
2019-05-26T04:30:27.889Z,-69
2019-05-26T04:32:59.783Z,-69
2019-05-26T04:35:30.465Z,-69
2019-05-26T04:38:02.261Z,-69
2019-05-26T04:40:33.826Z,-68
2019-05-26T04:43:05.432Z,-68
2019-05-26T04:45:37.379Z,-68
2019-05-26T04:48:09.062Z,-68
2019-05-26T04:50:40.742Z,-69
2019-05-26T04:53:11.489Z,-69
2019-05-26T04:55:43.307Z,-69
2019-05-26T04:58:14.877Z,-69
2019-05-26T05:00:46.785Z,-70
2019-05-26T05:03:18.408Z,-70
2019-05-26T05:05:50.402Z,-70
2019-05-26T05:08:22.339Z,-71
2019-05-26T05:10:54.010Z,-70
2019-05-26T05:13:25.793Z,-71
2019-05-26T05:15:57.577Z,-70
2019-05-26T05:18:29.301Z,-70
2019-05-26T05:21:00.833Z,-70
2019-05-26T05:23:32.384Z,-71
2019-05-26T05:26:04.044Z,-71
2019-05-26T05:28:36.049Z,-68
2019-05-26T05:31:07.741Z,-69
2019-05-26T05:33:38.819Z,-70
2019-05-26T05:36:10.733Z,-70
2019-05-26T05:38:41.881Z,-71
2019-05-26T05:43:00.307Z,-68
2019-05-26T05:45:31.842Z,-68
2019-05-26T05:48:03.836Z,-70
2019-05-26T05:50:38.918Z,-68
2019-05-26T05:53:09.057Z,-69
2019-05-26T05:55:40.769Z,-69
2019-05-26T05:58:11.537Z,-69
2019-05-26T06:00:45.449Z,-68
2019-05-26T06:03:18.813Z,-75
2019-05-26T06:05:50.400Z,-71
2019-05-26T06:08:22.079Z,-68
2019-05-26T06:10:53.746Z,-69
2019-05-26T06:13:24.480Z,-68
2019-05-26T06:15:56.293Z,-70
2019-05-26T06:18:27.854Z,-70
2019-05-26T06:20:59.379Z,-71
2019-05-26T06:23:36.854Z,-71
2019-05-26T06:26:07.765Z,-69
2019-05-26T06:28:39.256Z,-71
2019-05-26T06:31:11.038Z,-72
2019-05-26T06:33:42.791Z,-73
2019-05-26T06:36:13.465Z,-72
2019-05-26T06:38:45.611Z,-73
2019-05-26T06:41:32.192Z,-71
2019-05-26T06:43:51.304Z,-71
2019-05-26T06:46:23.306Z,-72
2019-05-26T06:48:54.893Z,-71
2019-05-26T06:51:26.386Z,-71
2019-05-26T06:53:58.430Z,-72
2019-05-26T06:56:33.730Z,-71
2019-05-26T06:59:04.600Z,-72
2019-05-26T07:01:36.337Z,-72
2019-05-26T07:04:08.605Z,-72
2019-05-26T07:06:39.669Z,-71
2019-05-26T07:09:10.924Z,-72
2019-05-26T07:11:55.483Z,-71
2019-05-26T07:14:16.300Z,-71
2019-05-26T07:16:47.874Z,-72
2019-05-26T07:19:19.670Z,-73
2019-05-26T07:21:50.422Z,-72
2019-05-26T07:24:22.016Z,-72
2019-05-26T07:26:53.745Z,-71
2019-05-26T07:29:24.612Z,-70
2019-05-26T07:31:55.927Z,-72
2019-05-26T07:34:27.454Z,-72
2019-05-26T07:36:59.710Z,-72
2019-05-26T07:39:31.258Z,-70
2019-05-26T07:42:10.227Z,-72
2019-05-26T07:44:36.371Z,-70
2019-05-26T07:47:09.302Z,-72
2019-05-26T07:49:40.870Z,-72
2019-05-26T07:52:12.426Z,-72
2019-05-26T07:54:44.058Z,-72
2019-05-26T07:57:15.736Z,-70
2019-05-26T07:59:46.497Z,-72
2019-05-26T08:02:18.301Z,-72
2019-05-26T08:04:49.847Z,-72
2019-05-26T08:07:23.130Z,-72
2019-05-26T08:09:55.765Z,-73
2019-05-26T08:12:30.561Z,-72
2019-05-26T08:15:00.770Z,-72
2019-05-26T08:17:32.392Z,-72
2019-05-26T08:20:04.297Z,-72
2019-05-26T08:22:36.343Z,-70
2019-05-26T08:25:08.776Z,-71
2019-05-26T08:27:39.771Z,-72
2019-05-26T08:30:11.866Z,-72
2019-05-26T08:32:43.758Z,-72
2019-05-26T08:35:14.561Z,-72
2019-05-26T08:37:46.532Z,-72
2019-05-26T08:40:21.827Z,-72
2019-05-26T08:42:53.786Z,-72
2019-05-26T08:45:27.365Z,-72
2019-05-26T08:47:59.299Z,-72
2019-05-26T08:50:34.131Z,-71
2019-05-26T08:53:04.757Z,-72
2019-05-26T08:55:35.451Z,-71
2019-05-26T08:58:07.812Z,-71
2019-05-26T09:00:39.590Z,-71
2019-05-26T09:03:11.344Z,-71
2019-05-26T09:05:43.349Z,-72
2019-05-26T09:08:15.065Z,-71
2019-05-26T09:10:47.310Z,-71
2019-05-26T09:13:18.822Z,-71
2019-05-26T09:15:50.433Z,-71
2019-05-26T09:18:22.314Z,-71
2019-05-26T09:20:53.912Z,-71
2019-05-26T09:23:26.009Z,-71
2019-05-26T09:25:57.767Z,-71
2019-05-26T09:28:28.461Z,-72
2019-05-26T09:31:00.305Z,-70
2019-05-26T09:33:31.831Z,-71
2019-05-26T09:36:03.830Z,-71
2019-05-26T09:38:35.602Z,-71
2019-05-26T09:41:07.393Z,-71
2019-05-26T09:43:39.265Z,-71
2019-05-26T09:46:11.310Z,-71
2019-05-26T09:48:43.310Z,-71
2019-05-26T09:51:15.000Z,-71
2019-05-26T09:54:00.884Z,-71
2019-05-26T09:56:20.302Z,-70
2019-05-26T09:58:52.265Z,-71
2019-05-26T10:01:24.078Z,-71
2019-05-26T10:03:55.929Z,-71
2019-05-26T10:06:27.709Z,-71
2019-05-26T10:08:58.496Z,-71
2019-05-26T10:11:30.311Z,-71
2019-05-26T10:14:01.872Z,-71
2019-05-26T10:16:33.769Z,-71
2019-05-26T10:19:05.392Z,-70
2019-05-26T10:21:37.296Z,-70
2019-05-26T10:24:08.909Z,-70
2019-05-26T10:26:41.266Z,-71
2019-05-26T10:29:13.062Z,-70
2019-05-26T10:31:44.759Z,-72
2019-05-26T10:34:15.448Z,-72
2019-05-26T10:36:54.448Z,-71
2019-05-26T10:39:34.853Z,-71
2019-05-26T10:42:06.746Z,-72
2019-05-26T10:44:38.341Z,-72
2019-05-26T10:47:10.070Z,-71
2019-05-26T10:49:42.555Z,-72
2019-05-26T10:52:13.654Z,-71
2019-05-26T10:54:44.442Z,-71
2019-05-26T10:57:16.267Z,-71
2019-05-26T10:59:48.762Z,-72
2019-05-26T11:02:19.616Z,-71
2019-05-26T11:04:51.754Z,-71
2019-05-26T11:07:26.786Z,-71
2019-05-26T11:09:57.068Z,-72
2019-05-26T11:12:28.777Z,-72
2019-05-26T11:15:00.335Z,-71
2019-05-26T11:17:32.053Z,-71
2019-05-26T11:20:03.715Z,-72
2019-05-26T11:22:34.621Z,-72
2019-05-26T11:25:06.857Z,-72
2019-05-26T11:27:38.787Z,-71
2019-05-26T11:30:11.332Z,-72
2019-05-26T11:32:43.390Z,-71
2019-05-26T11:35:15.299Z,-71
2019-05-26T11:37:46.856Z,-71
2019-05-26T11:40:18.794Z,-71
2019-05-26T11:42:50.579Z,-71
2019-05-26T11:45:22.309Z,-71
2019-05-26T11:47:54.302Z,-72
2019-05-26T11:50:26.003Z,-70
2019-05-26T11:52:57.763Z,-72
2019-05-26T11:55:28.696Z,-72
2019-05-26T11:57:59.464Z,-72
2019-05-26T12:00:31.298Z,-72
2019-05-26T12:03:02.876Z,-71
2019-05-26T12:05:35.300Z,-73
2019-05-26T12:08:06.904Z,-71
2019-05-26T12:10:38.719Z,-71
2019-05-26T12:13:09.460Z,-72
2019-05-26T12:15:41.537Z,-72
2019-05-26T12:18:13.474Z,-73
2019-05-26T12:20:45.585Z,-72
2019-05-26T12:23:17.311Z,-69
2019-05-26T12:25:49.303Z,-72
2019-05-26T12:28:21.313Z,-72
2019-05-26T12:30:52.910Z,-73
2019-05-26T12:33:24.798Z,-73
2019-05-26T12:35:56.519Z,-72
2019-05-26T12:38:28.294Z,-72
2019-05-26T12:40:59.974Z,-72
2019-05-26T12:43:31.750Z,-71
2019-05-26T12:46:03.589Z,-69
2019-05-26T12:48:35.268Z,-67
2019-05-26T12:51:06.862Z,-68
2019-05-26T12:53:38.403Z,-72
2019-05-26T12:56:10.091Z,-72
2019-05-26T12:58:41.853Z,-70
2019-05-26T13:01:13.432Z,-69
2019-05-26T13:03:45.361Z,-70
2019-05-26T13:06:17.754Z,-70
2019-05-26T13:08:49.854Z,-71
2019-05-26T13:11:22.879Z,-71
2019-05-26T13:13:54.790Z,-73
2019-05-26T13:16:26.741Z,-73
2019-05-26T13:18:57.504Z,-73
2019-05-26T13:21:29.306Z,-73
2019-05-26T13:24:01.300Z,-73
2019-05-26T13:26:32.846Z,-73
2019-05-26T13:29:04.769Z,-73
2019-05-26T13:31:35.448Z,-73
2019-05-26T13:34:07.416Z,-73
2019-05-26T13:36:39.022Z,-74
2019-05-26T13:39:11.729Z,-73
2019-05-26T13:41:42.423Z,-73
2019-05-26T13:44:14.305Z,-73
2019-05-26T13:46:45.824Z,-73
2019-05-26T13:49:18.321Z,-73
2019-05-26T13:51:50.606Z,-73
2019-05-26T13:54:22.369Z,-73
2019-05-26T13:56:54.029Z,-73
2019-05-26T13:59:25.855Z,-73
2019-05-26T14:01:57.739Z,-72
2019-05-26T14:04:28.451Z,-73
2019-05-26T14:07:00.253Z,-73
2019-05-26T14:09:32.613Z,-73
2019-05-26T14:12:04.386Z,-73
2019-05-26T14:14:36.306Z,-73
2019-05-26T14:17:08.293Z,-73
2019-05-26T14:19:40.298Z,-73
2019-05-26T14:22:11.818Z,-73
2019-05-26T14:24:53.410Z,-73
2019-05-26T14:27:17.522Z,-73
2019-05-26T14:29:49.255Z,-73
2019-05-26T14:32:20.857Z,-73
2019-05-26T14:34:52.794Z,-73
2019-05-26T14:37:24.749Z,-73
2019-05-26T14:39:55.516Z,-73
2019-05-26T14:42:27.306Z,-73
2019-05-26T14:44:58.994Z,-73
2019-05-26T14:47:30.687Z,-73
2019-05-26T14:50:01.506Z,-73
2019-05-26T14:52:33.662Z,-73
2019-05-26T14:55:04.624Z,-73
2019-05-26T14:57:36.770Z,-73
2019-05-26T15:00:07.891Z,-73
2019-05-26T15:02:39.958Z,-73
2019-05-26T15:05:11.791Z,-73
2019-05-26T15:07:43.422Z,-73
2019-05-26T15:10:15.265Z,-73
2019-05-26T15:12:47.311Z,-74
2019-05-26T15:15:18.893Z,-73
2019-05-26T15:17:50.818Z,-73
2019-05-26T15:20:22.715Z,-73
2019-05-26T15:22:53.484Z,-72
2019-05-26T15:25:25.307Z,-73
2019-05-26T15:27:56.872Z,-73
2019-05-26T15:30:28.735Z,-73
2019-05-26T15:32:59.620Z,-73
2019-05-26T15:35:31.342Z,-73
2019-05-26T15:38:03.285Z,-72
2019-05-26T15:40:34.830Z,-71
2019-05-26T15:43:06.593Z,-72
2019-05-26T15:45:38.342Z,-72
2019-05-26T15:48:10.374Z,-72
2019-05-26T15:50:42.059Z,-72
2019-05-26T15:53:13.752Z,-73
2019-05-26T15:55:45.498Z,-73
2019-05-26T15:58:17.355Z,-73
2019-05-26T16:00:49.795Z,-73
2019-05-26T16:03:21.631Z,-72
2019-05-26T16:05:54.069Z,-72
2019-05-26T16:08:25.801Z,-73
2019-05-26T16:10:57.622Z,-73
2019-05-26T16:13:29.822Z,-72
2019-05-26T16:16:01.618Z,-72
2019-05-26T16:18:33.627Z,-72
2019-05-26T16:21:05.353Z,-72
2019-05-26T16:23:37.033Z,-72
2019-05-26T16:26:08.784Z,-71
2019-05-26T16:28:40.428Z,-72
2019-05-26T16:31:12.620Z,-71
2019-05-26T16:33:43.635Z,-71
2019-05-26T16:36:15.788Z,-73
2019-05-26T16:38:47.390Z,-72
2019-05-26T16:41:19.351Z,-72
2019-05-26T16:43:51.312Z,-72
2019-05-26T16:46:22.811Z,-72
2019-05-26T16:48:54.975Z,-72
2019-05-26T16:51:26.867Z,-72
2019-05-26T16:53:58.389Z,-72
2019-05-26T16:56:30.316Z,-72
2019-05-26T16:59:02.306Z,-72
2019-05-26T17:01:33.991Z,-71
2019-05-26T17:04:05.755Z,-72
2019-05-26T17:06:36.447Z,-72
2019-05-26T17:09:10.411Z,-72
2019-05-26T17:11:42.067Z,-71
2019-05-26T17:14:13.783Z,-72
2019-05-26T17:16:45.628Z,-71
2019-05-26T17:19:17.469Z,-72
2019-05-26T17:21:49.410Z,-72
2019-05-26T17:24:21.287Z,-72
2019-05-26T17:26:52.841Z,-73
2019-05-26T17:29:24.630Z,-72
2019-05-26T17:31:56.338Z,-72
2019-05-26T17:34:28.377Z,-73
2019-05-26T17:37:00.255Z,-72
2019-05-26T17:39:31.837Z,-71
2019-05-26T17:42:03.649Z,-72
2019-05-26T17:44:34.442Z,-72
2019-05-26T17:47:06.056Z,-72
2019-05-26T17:49:37.786Z,-72
2019-05-26T17:52:09.452Z,-72
2019-05-26T17:54:41.301Z,-72
2019-05-26T17:57:12.884Z,-72
2019-05-26T17:59:44.722Z,-72
2019-05-26T18:02:15.907Z,-72
2019-05-26T18:04:47.737Z,-71
2019-05-26T18:07:18.473Z,-72
2019-05-26T18:09:50.406Z,-72
2019-05-26T18:12:22.123Z,-72
2019-05-26T18:14:53.758Z,-72
2019-05-26T18:17:24.499Z,-72
2019-05-26T18:19:56.353Z,-72
2019-05-26T18:22:28.295Z,-72
2019-05-26T18:25:00.408Z,-72
2019-05-26T18:27:32.318Z,-72
2019-05-26T18:30:03.925Z,-72
2019-05-26T18:32:35.457Z,-72
2019-05-26T18:35:07.823Z,-72
2019-05-26T18:37:39.778Z,-72
2019-05-26T18:40:12.005Z,-72
2019-05-26T18:42:43.803Z,-72
2019-05-26T18:45:15.777Z,-72
2019-05-26T18:48:01.406Z,-71
2019-05-26T18:50:20.434Z,-72
2019-05-26T18:52:52.311Z,-72
2019-05-26T18:55:23.886Z,-72
2019-05-26T18:57:55.746Z,-72
2019-05-26T19:00:31.066Z,-71
2019-05-26T19:02:59.874Z,-72
2019-05-26T19:05:35.872Z,-72
2019-05-26T19:08:04.808Z,-72
2019-05-26T19:10:36.539Z,-72
2019-05-26T19:13:10.659Z,-72
2019-05-26T19:15:41.760Z,-72
2019-05-26T19:18:19.806Z,-72
2019-05-26T19:20:46.040Z,-72
2019-05-26T19:23:17.745Z,-72
2019-05-26T19:25:48.601Z,-71
2019-05-26T19:28:21.266Z,-70
2019-05-26T19:30:53.018Z,-72
2019-05-26T19:33:24.898Z,-72
2019-05-26T19:35:56.411Z,-72
2019-05-26T19:38:28.313Z,-71
2019-05-26T19:40:59.849Z,-71
2019-05-26T19:43:31.569Z,-70
2019-05-26T19:46:03.793Z,-71
2019-05-26T19:48:37.276Z,-71
2019-05-26T19:51:09.830Z,-71
2019-05-26T19:53:41.738Z,-72
2019-05-26T19:56:12.533Z,-73
2019-05-26T19:58:44.374Z,-72
2019-05-26T20:01:16.054Z,-71
2019-05-26T20:03:47.883Z,-74
2019-05-26T20:06:19.363Z,-72
2019-05-26T20:08:51.769Z,-71
2019-05-26T20:11:22.485Z,-71
2019-05-26T20:13:54.323Z,-71
2019-05-26T20:16:25.851Z,-71
2019-05-26T20:18:57.598Z,-71
2019-05-26T20:21:29.774Z,-71
2019-05-26T20:24:00.490Z,-71
2019-05-26T20:26:32.310Z,-72
2019-05-26T20:29:14.571Z,-72
2019-05-26T20:32:07.491Z,-73
2019-05-26T20:34:39.638Z,-71
2019-05-26T20:37:12.037Z,-71
2019-05-26T20:39:44.312Z,-71
2019-05-26T20:42:15.849Z,-71
2019-05-26T20:44:47.638Z,-71
2019-05-26T20:47:19.782Z,-70
2019-05-26T20:49:50.520Z,-71
2019-05-26T20:52:22.307Z,-73
2019-05-26T20:54:54.330Z,-72
2019-05-26T20:57:25.874Z,-71
2019-05-26T20:59:57.809Z,-71
2019-05-26T21:02:29.513Z,-72
2019-05-26T21:05:01.763Z,-72
2019-05-26T21:07:32.473Z,-72
2019-05-26T21:10:04.325Z,-71
2019-05-26T21:12:36.003Z,-73
2019-05-26T21:15:08.332Z,-71
2019-05-26T21:17:39.882Z,-71
2019-05-26T21:20:11.745Z,-72
2019-05-26T21:22:42.636Z,-74
2019-05-26T21:25:14.664Z,-71
2019-05-26T21:27:46.364Z,-72
2019-05-26T21:30:18.503Z,-71
2019-05-26T21:32:49.457Z,-71
2019-05-26T21:35:21.446Z,-72
2019-05-26T21:37:53.086Z,-71
2019-05-26T21:40:24.756Z,-70
2019-05-26T21:42:55.491Z,-70
2019-05-26T21:45:27.440Z,-72
2019-05-26T21:47:59.057Z,-70
2019-05-26T21:50:30.794Z,-71
2019-05-26T21:53:02.425Z,-71
2019-05-26T21:55:34.045Z,-71
2019-05-26T21:58:05.779Z,-71
2019-05-26T22:00:41.603Z,-72
2019-05-26T22:03:13.360Z,-71
2019-05-26T22:05:45.366Z,-71
2019-05-26T22:08:17.071Z,-74
2019-05-26T22:10:48.755Z,-71
2019-05-26T22:13:21.110Z,-71
2019-05-26T22:15:53.452Z,-72
2019-05-26T22:18:25.766Z,-72
2019-05-26T22:20:57.394Z,-72
2019-05-26T22:23:29.048Z,-71
2019-05-26T22:26:00.742Z,-72
2019-05-26T22:28:32.362Z,-72
2019-05-26T22:31:04.073Z,-71
2019-05-26T22:33:35.847Z,-71
2019-05-26T22:36:07.368Z,-71
2019-05-26T22:38:39.050Z,-71
2019-05-26T22:41:10.837Z,-71
2019-05-26T22:43:42.640Z,-73
2019-05-26T22:46:14.362Z,-71
2019-05-26T22:48:46.051Z,-71
2019-05-26T22:51:17.798Z,-74
2019-05-26T22:53:49.575Z,-73
2019-05-26T22:56:21.308Z,-71
2019-05-26T22:58:53.376Z,-72
2019-05-26T23:01:25.053Z,-72
2019-05-26T23:03:57.313Z,-71
2019-05-26T23:06:28.817Z,-71
2019-05-26T23:09:00.510Z,-71
2019-05-26T23:11:32.318Z,-71
2019-05-26T23:14:03.822Z,-72
2019-05-26T23:16:35.546Z,-72
2019-05-26T23:19:18.705Z,-71
2019-05-26T23:21:40.745Z,-71
2019-05-26T23:24:12.379Z,-72
2019-05-26T23:26:44.066Z,-72
2019-05-26T23:29:15.746Z,-73
2019-05-26T23:31:46.482Z,-71
2019-05-26T23:34:18.299Z,-71
2019-05-26T23:36:49.878Z,-73
2019-05-26T23:39:22.392Z,-71
2019-05-26T23:41:54.067Z,-72
2019-05-26T23:44:25.853Z,-74
2019-05-26T23:46:57.592Z,-70
2019-05-26T23:49:29.259Z,-74
2019-05-26T23:52:00.819Z,-71
2019-05-26T23:54:32.397Z,-72
2019-05-26T23:57:04.312Z,-70
2019-05-26T23:59:35.860Z,-74
